sensor_id;sensor_type;location;lat;lon;timestamp;P1;durP1;ratioP1;P2;durP2;ratioP2
57303;SDS011;43150;50.986;18.208;2022-12-18T00:00:29;64.50;;;29.90;;
57303;SDS011;43150;50.986;18.208;2022-12-18T00:02:55;48.20;;;19.40;;
57303;SDS011;43150;50.986;18.208;2022-12-18T00:05:20;55.20;;;23.70;;
57303;SDS011;43150;50.986;18.208;2022-12-18T00:07:46;46.80;;;21.30;;
57303;SDS011;43150;50.986;18.208;2022-12-18T00:10:12;50.50;;;20.30;;
57303;SDS011;43150;50.986;18.208;2022-12-18T00:12:37;50.80;;;22.30;;
57303;SDS011;43150;50.986;18.208;2022-12-18T00:15:10;41.90;;;17.00;;
57303;SDS011;43150;50.986;18.208;2022-12-18T00:17:38;39.50;;;18.30;;
57303;SDS011;43150;50.986;18.208;2022-12-18T00:20:03;47.10;;;21.90;;
57303;SDS011;43150;50.986;18.208;2022-12-18T00:22:36;40.60;;;16.00;;
57303;SDS011;43150;50.986;18.208;2022-12-18T00:25:02;44.40;;;19.40;;
57303;SDS011;43150;50.986;18.208;2022-12-18T00:27:28;47.60;;;19.80;;
57303;SDS011;43150;50.986;18.208;2022-12-18T00:29:53;40.50;;;18.00;;
57303;SDS011;43150;50.986;18.208;2022-12-18T00:32:25;37.40;;;15.40;;
57303;SDS011;43150;50.986;18.208;2022-12-18T00:34:50;34.70;;;15.60;;
57303;SDS011;43150;50.986;18.208;2022-12-18T00:37:16;40.70;;;17.50;;
57303;SDS011;43150;50.986;18.208;2022-12-18T00:39:41;42.30;;;18.10;;
57303;SDS011;43150;50.986;18.208;2022-12-18T00:42:07;39.20;;;19.20;;
57303;SDS011;43150;50.986;18.208;2022-12-18T00:44:54;42.00;;;16.50;;
57303;SDS011;43150;50.986;18.208;2022-12-18T00:47:20;38.90;;;17.70;;
57303;SDS011;43150;50.986;18.208;2022-12-18T00:49:46;45.40;;;17.70;;
57303;SDS011;43150;50.986;18.208;2022-12-18T00:52:11;37.80;;;16.50;;
57303;SDS011;43150;50.986;18.208;2022-12-18T00:54:38;46.40;;;18.50;;
57303;SDS011;43150;50.986;18.208;2022-12-18T00:57:07;47.00;;;18.60;;
57303;SDS011;43150;50.986;18.208;2022-12-18T00:59:32;51.60;;;17.90;;
57303;SDS011;43150;50.986;18.208;2022-12-18T01:01:58;45.70;;;21.20;;
57303;SDS011;43150;50.986;18.208;2022-12-18T01:04:24;46.80;;;19.20;;
57303;SDS011;43150;50.986;18.208;2022-12-18T01:06:49;45.60;;;15.70;;
57303;SDS011;43150;50.986;18.208;2022-12-18T01:09:14;42.10;;;18.50;;
57303;SDS011;43150;50.986;18.208;2022-12-18T01:11:40;42.50;;;18.00;;
57303;SDS011;43150;50.986;18.208;2022-12-18T01:14:06;38.90;;;15.70;;
57303;SDS011;43150;50.986;18.208;2022-12-18T01:16:31;39.10;;;16.50;;
57303;SDS011;43150;50.986;18.208;2022-12-18T01:18:57;40.60;;;16.50;;
57303;SDS011;43150;50.986;18.208;2022-12-18T01:21:23;35.20;;;15.50;;
57303;SDS011;43150;50.986;18.208;2022-12-18T01:23:53;37.60;;;17.10;;
57303;SDS011;43150;50.986;18.208;2022-12-18T01:26:19;41.70;;;17.10;;
57303;SDS011;43150;50.986;18.208;2022-12-18T01:28:44;35.20;;;15.40;;
57303;SDS011;43150;50.986;18.208;2022-12-18T01:33:35;36.90;;;15.20;;
57303;SDS011;43150;50.986;18.208;2022-12-18T01:36:00;37.30;;;16.00;;
57303;SDS011;43150;50.986;18.208;2022-12-18T01:38:26;39.60;;;15.40;;
57303;SDS011;43150;50.986;18.208;2022-12-18T01:40:57;38.20;;;16.30;;
57303;SDS011;43150;50.986;18.208;2022-12-18T01:43:39;36.30;;;14.70;;
57303;SDS011;43150;50.986;18.208;2022-12-18T01:46:05;29.60;;;13.20;;
57303;SDS011;43150;50.986;18.208;2022-12-18T01:48:31;45.50;;;15.70;;
57303;SDS011;43150;50.986;18.208;2022-12-18T01:50:56;34.40;;;13.60;;
57303;SDS011;43150;50.986;18.208;2022-12-18T01:53:23;42.00;;;13.70;;
57303;SDS011;43150;50.986;18.208;2022-12-18T01:55:54;40.40;;;16.50;;
57303;SDS011;43150;50.986;18.208;2022-12-18T01:58:21;35.40;;;16.30;;
57303;SDS011;43150;50.986;18.208;2022-12-18T02:00:48;39.00;;;15.60;;
57303;SDS011;43150;50.986;18.208;2022-12-18T02:03:14;43.40;;;17.60;;
57303;SDS011;43150;50.986;18.208;2022-12-18T02:08:08;36.80;;;16.70;;
57303;SDS011;43150;50.986;18.208;2022-12-18T02:10:39;44.20;;;16.80;;
57303;SDS011;43150;50.986;18.208;2022-12-18T02:13:11;39.80;;;16.10;;
57303;SDS011;43150;50.986;18.208;2022-12-18T02:15:39;40.20;;;15.80;;
57303;SDS011;43150;50.986;18.208;2022-12-18T02:18:10;42.80;;;13.90;;
57303;SDS011;43150;50.986;18.208;2022-12-18T02:20:54;32.40;;;12.40;;
57303;SDS011;43150;50.986;18.208;2022-12-18T02:23:24;42.40;;;20.00;;
57303;SDS011;43150;50.986;18.208;2022-12-18T02:28:25;44.30;;;15.70;;
57303;SDS011;43150;50.986;18.208;2022-12-18T02:30:56;42.80;;;20.40;;
57303;SDS011;43150;50.986;18.208;2022-12-18T02:33:25;39.40;;;18.10;;
57303;SDS011;43150;50.986;18.208;2022-12-18T02:35:52;24.70;;;10.70;;
57303;SDS011;43150;50.986;18.208;2022-12-18T02:38:19;45.80;;;20.70;;
57303;SDS011;43150;50.986;18.208;2022-12-18T02:40:44;43.80;;;16.40;;
57303;SDS011;43150;50.986;18.208;2022-12-18T02:43:12;39.80;;;16.80;;
57303;SDS011;43150;50.986;18.208;2022-12-18T02:45:48;32.40;;;17.00;;
57303;SDS011;43150;50.986;18.208;2022-12-18T02:48:16;36.60;;;14.90;;
57303;SDS011;43150;50.986;18.208;2022-12-18T02:50:45;42.20;;;20.10;;
57303;SDS011;43150;50.986;18.208;2022-12-18T02:53:48;44.30;;;18.90;;
57303;SDS011;43150;50.986;18.208;2022-12-18T02:56:16;35.70;;;14.60;;
57303;SDS011;43150;50.986;18.208;2022-12-18T03:01:24;35.30;;;14.10;;
57303;SDS011;43150;50.986;18.208;2022-12-18T03:03:52;35.20;;;13.80;;
57303;SDS011;43150;50.986;18.208;2022-12-18T03:06:23;30.50;;;13.30;;
57303;SDS011;43150;50.986;18.208;2022-12-18T03:09:03;27.10;;;10.90;;
57303;SDS011;43150;50.986;18.208;2022-12-18T03:11:32;46.20;;;20.90;;
57303;SDS011;43150;50.986;18.208;2022-12-18T03:14:22;39.00;;;15.80;;
57303;SDS011;43150;50.986;18.208;2022-12-18T03:16:49;34.80;;;15.00;;
57303;SDS011;43150;50.986;18.208;2022-12-18T03:19:16;35.70;;;15.00;;
57303;SDS011;43150;50.986;18.208;2022-12-18T03:21:45;35.10;;;13.20;;
57303;SDS011;43150;50.986;18.208;2022-12-18T03:24:11;29.50;;;10.80;;
57303;SDS011;43150;50.986;18.208;2022-12-18T03:26:37;37.80;;;14.50;;
57303;SDS011;43150;50.986;18.208;2022-12-18T03:29:08;33.60;;;12.50;;
57303;SDS011;43150;50.986;18.208;2022-12-18T03:31:37;24.50;;;11.40;;
57303;SDS011;43150;50.986;18.208;2022-12-18T03:34:04;30.50;;;11.60;;
57303;SDS011;43150;50.986;18.208;2022-12-18T03:36:34;39.30;;;14.30;;
57303;SDS011;43150;50.986;18.208;2022-12-18T03:39:03;29.20;;;11.80;;
57303;SDS011;43150;50.986;18.208;2022-12-18T03:44:14;35.40;;;14.40;;
57303;SDS011;43150;50.986;18.208;2022-12-18T03:46:49;33.40;;;12.10;;
57303;SDS011;43150;50.986;18.208;2022-12-18T03:52:10;32.10;;;11.20;;
57303;SDS011;43150;50.986;18.208;2022-12-18T03:54:38;28.30;;;13.10;;
57303;SDS011;43150;50.986;18.208;2022-12-18T03:57:19;36.40;;;13.20;;
57303;SDS011;43150;50.986;18.208;2022-12-18T03:59:45;27.20;;;10.60;;
57303;SDS011;43150;50.986;18.208;2022-12-18T04:02:12;33.70;;;12.00;;
57303;SDS011;43150;50.986;18.208;2022-12-18T04:04:38;37.80;;;14.00;;
57303;SDS011;43150;50.986;18.208;2022-12-18T04:07:04;37.00;;;12.20;;
57303;SDS011;43150;50.986;18.208;2022-12-18T04:09:31;23.10;;;8.90;;
57303;SDS011;43150;50.986;18.208;2022-12-18T04:11:57;26.50;;;10.90;;
57303;SDS011;43150;50.986;18.208;2022-12-18T04:14:23;31.10;;;12.70;;
57303;SDS011;43150;50.986;18.208;2022-12-18T04:16:48;28.00;;;12.70;;
57303;SDS011;43150;50.986;18.208;2022-12-18T04:19:14;27.00;;;11.00;;
57303;SDS011;43150;50.986;18.208;2022-12-18T04:21:40;30.40;;;11.50;;
57303;SDS011;43150;50.986;18.208;2022-12-18T04:24:05;28.00;;;11.90;;
57303;SDS011;43150;50.986;18.208;2022-12-18T04:26:31;29.80;;;11.50;;
57303;SDS011;43150;50.986;18.208;2022-12-18T04:28:57;33.80;;;12.40;;
57303;SDS011;43150;50.986;18.208;2022-12-18T04:31:22;24.10;;;10.20;;
57303;SDS011;43150;50.986;18.208;2022-12-18T04:33:48;28.10;;;10.30;;
57303;SDS011;43150;50.986;18.208;2022-12-18T04:36:13;28.90;;;11.10;;
57303;SDS011;43150;50.986;18.208;2022-12-18T04:38:39;29.50;;;11.70;;
57303;SDS011;43150;50.986;18.208;2022-12-18T04:41:04;32.60;;;11.70;;
57303;SDS011;43150;50.986;18.208;2022-12-18T04:43:30;21.70;;;9.10;;
57303;SDS011;43150;50.986;18.208;2022-12-18T04:46:06;35.70;;;10.70;;
57303;SDS011;43150;50.986;18.208;2022-12-18T04:50:57;34.00;;;14.20;;
57303;SDS011;43150;50.986;18.208;2022-12-18T04:53:23;40.60;;;15.00;;
57303;SDS011;43150;50.986;18.208;2022-12-18T04:55:49;34.20;;;14.40;;
57303;SDS011;43150;50.986;18.208;2022-12-18T04:58:16;36.10;;;13.90;;
57303;SDS011;43150;50.986;18.208;2022-12-18T05:00:41;34.60;;;14.80;;
57303;SDS011;43150;50.986;18.208;2022-12-18T05:03:07;33.20;;;13.10;;
57303;SDS011;43150;50.986;18.208;2022-12-18T05:05:34;38.90;;;15.40;;
57303;SDS011;43150;50.986;18.208;2022-12-18T05:07:59;44.40;;;19.40;;
57303;SDS011;43150;50.986;18.208;2022-12-18T05:10:32;35.50;;;15.60;;
57303;SDS011;43150;50.986;18.208;2022-12-18T05:12:58;38.40;;;14.30;;
57303;SDS011;43150;50.986;18.208;2022-12-18T05:15:31;33.90;;;14.40;;
57303;SDS011;43150;50.986;18.208;2022-12-18T05:17:57;40.80;;;15.20;;
57303;SDS011;43150;50.986;18.208;2022-12-18T05:20:23;32.80;;;13.20;;
57303;SDS011;43150;50.986;18.208;2022-12-18T05:22:48;21.70;;;8.90;;
57303;SDS011;43150;50.986;18.208;2022-12-18T05:25:14;31.30;;;13.20;;
57303;SDS011;43150;50.986;18.208;2022-12-18T05:27:40;24.20;;;9.90;;
57303;SDS011;43150;50.986;18.208;2022-12-18T05:30:06;41.10;;;13.00;;
57303;SDS011;43150;50.986;18.208;2022-12-18T05:32:31;33.80;;;15.00;;
57303;SDS011;43150;50.986;18.208;2022-12-18T05:34:57;32.40;;;12.00;;
57303;SDS011;43150;50.986;18.208;2022-12-18T05:37:23;35.30;;;13.80;;
57303;SDS011;43150;50.986;18.208;2022-12-18T05:39:49;37.90;;;14.80;;
57303;SDS011;43150;50.986;18.208;2022-12-18T05:42:18;36.50;;;14.50;;
57303;SDS011;43150;50.986;18.208;2022-12-18T05:44:51;24.70;;;10.50;;
57303;SDS011;43150;50.986;18.208;2022-12-18T05:47:16;30.80;;;11.30;;
57303;SDS011;43150;50.986;18.208;2022-12-18T05:49:42;34.40;;;14.10;;
57303;SDS011;43150;50.986;18.208;2022-12-18T05:52:08;34.30;;;14.40;;
57303;SDS011;43150;50.986;18.208;2022-12-18T05:54:34;34.20;;;14.00;;
57303;SDS011;43150;50.986;18.208;2022-12-18T05:56:59;30.90;;;13.40;;
57303;SDS011;43150;50.986;18.208;2022-12-18T05:59:25;38.90;;;15.50;;
57303;SDS011;43150;50.986;18.208;2022-12-18T06:01:50;53.30;;;20.10;;
57303;SDS011;43150;50.986;18.208;2022-12-18T06:04:16;39.60;;;15.60;;
57303;SDS011;43150;50.986;18.208;2022-12-18T06:06:42;52.30;;;22.50;;
57303;SDS011;43150;50.986;18.208;2022-12-18T06:09:07;41.50;;;17.90;;
57303;SDS011;43150;50.986;18.208;2022-12-18T06:11:35;38.20;;;17.00;;
57303;SDS011;43150;50.986;18.208;2022-12-18T06:14:01;32.80;;;14.60;;
57303;SDS011;43150;50.986;18.208;2022-12-18T06:16:27;32.50;;;14.40;;
57303;SDS011;43150;50.986;18.208;2022-12-18T06:19:00;38.70;;;14.90;;
57303;SDS011;43150;50.986;18.208;2022-12-18T06:21:27;29.90;;;10.20;;
57303;SDS011;43150;50.986;18.208;2022-12-18T06:23:53;27.30;;;11.70;;
57303;SDS011;43150;50.986;18.208;2022-12-18T06:26:19;32.10;;;12.90;;
57303;SDS011;43150;50.986;18.208;2022-12-18T06:28:44;30.30;;;12.60;;
57303;SDS011;43150;50.986;18.208;2022-12-18T06:31:10;30.00;;;12.30;;
57303;SDS011;43150;50.986;18.208;2022-12-18T06:33:35;36.90;;;13.60;;
57303;SDS011;43150;50.986;18.208;2022-12-18T06:36:02;24.70;;;11.40;;
57303;SDS011;43150;50.986;18.208;2022-12-18T06:38:28;36.00;;;14.60;;
57303;SDS011;43150;50.986;18.208;2022-12-18T06:40:53;31.60;;;12.00;;
57303;SDS011;43150;50.986;18.208;2022-12-18T06:43:18;33.50;;;14.20;;
57303;SDS011;43150;50.986;18.208;2022-12-18T06:45:45;24.70;;;9.70;;
57303;SDS011;43150;50.986;18.208;2022-12-18T06:48:14;38.80;;;13.70;;
57303;SDS011;43150;50.986;18.208;2022-12-18T06:50:41;43.80;;;16.90;;
57303;SDS011;43150;50.986;18.208;2022-12-18T06:53:07;43.90;;;16.10;;
57303;SDS011;43150;50.986;18.208;2022-12-18T06:55:33;51.20;;;22.70;;
57303;SDS011;43150;50.986;18.208;2022-12-18T06:57:58;46.40;;;19.80;;
57303;SDS011;43150;50.986;18.208;2022-12-18T07:00:24;47.00;;;18.40;;
57303;SDS011;43150;50.986;18.208;2022-12-18T07:02:49;43.00;;;14.30;;
57303;SDS011;43150;50.986;18.208;2022-12-18T07:05:17;35.50;;;13.40;;
57303;SDS011;43150;50.986;18.208;2022-12-18T07:07:42;31.20;;;14.10;;
57303;SDS011;43150;50.986;18.208;2022-12-18T07:10:14;26.40;;;11.10;;
57303;SDS011;43150;50.986;18.208;2022-12-18T07:12:40;34.50;;;12.50;;
57303;SDS011;43150;50.986;18.208;2022-12-18T07:15:06;44.30;;;15.80;;
57303;SDS011;43150;50.986;18.208;2022-12-18T07:17:32;29.40;;;12.30;;
57303;SDS011;43150;50.986;18.208;2022-12-18T07:19:57;42.20;;;17.60;;
57303;SDS011;43150;50.986;18.208;2022-12-18T07:22:24;35.60;;;15.50;;
57303;SDS011;43150;50.986;18.208;2022-12-18T07:24:54;47.10;;;18.30;;
57303;SDS011;43150;50.986;18.208;2022-12-18T07:27:20;38.60;;;15.10;;
57303;SDS011;43150;50.986;18.208;2022-12-18T07:29:46;37.60;;;15.20;;
57303;SDS011;43150;50.986;18.208;2022-12-18T07:32:11;37.50;;;15.70;;
57303;SDS011;43150;50.986;18.208;2022-12-18T07:34:37;39.20;;;14.50;;
57303;SDS011;43150;50.986;18.208;2022-12-18T07:37:02;39.20;;;16.10;;
57303;SDS011;43150;50.986;18.208;2022-12-18T07:39:28;51.50;;;19.70;;
57303;SDS011;43150;50.986;18.208;2022-12-18T07:41:56;43.60;;;19.40;;
57303;SDS011;43150;50.986;18.208;2022-12-18T07:44:40;37.90;;;14.90;;
57303;SDS011;43150;50.986;18.208;2022-12-18T07:47:06;50.20;;;19.80;;
57303;SDS011;43150;50.986;18.208;2022-12-18T07:49:31;44.80;;;20.10;;
57303;SDS011;43150;50.986;18.208;2022-12-18T07:51:57;58.30;;;24.30;;
57303;SDS011;43150;50.986;18.208;2022-12-18T07:54:26;56.20;;;24.30;;
57303;SDS011;43150;50.986;18.208;2022-12-18T07:56:52;65.00;;;30.40;;
57303;SDS011;43150;50.986;18.208;2022-12-18T07:59:18;41.60;;;18.70;;
57303;SDS011;43150;50.986;18.208;2022-12-18T08:01:44;52.00;;;20.20;;
57303;SDS011;43150;50.986;18.208;2022-12-18T08:04:09;39.10;;;16.60;;
57303;SDS011;43150;50.986;18.208;2022-12-18T08:06:34;41.80;;;16.90;;
57303;SDS011;43150;50.986;18.208;2022-12-18T08:09:00;43.40;;;17.90;;
57303;SDS011;43150;50.986;18.208;2022-12-18T08:11:26;45.20;;;18.20;;
57303;SDS011;43150;50.986;18.208;2022-12-18T08:13:53;45.90;;;18.90;;
57303;SDS011;43150;50.986;18.208;2022-12-18T08:16:19;52.80;;;21.20;;
57303;SDS011;43150;50.986;18.208;2022-12-18T08:18:44;43.90;;;19.70;;
57303;SDS011;43150;50.986;18.208;2022-12-18T08:21:10;40.40;;;19.00;;
57303;SDS011;43150;50.986;18.208;2022-12-18T08:23:36;38.50;;;15.40;;
57303;SDS011;43150;50.986;18.208;2022-12-18T08:26:02;29.20;;;12.50;;
57303;SDS011;43150;50.986;18.208;2022-12-18T08:28:28;30.20;;;14.00;;
57303;SDS011;43150;50.986;18.208;2022-12-18T08:30:53;30.60;;;13.80;;
57303;SDS011;43150;50.986;18.208;2022-12-18T08:33:19;40.10;;;17.10;;
57303;SDS011;43150;50.986;18.208;2022-12-18T08:35:45;40.30;;;18.00;;
57303;SDS011;43150;50.986;18.208;2022-12-18T08:38:10;52.40;;;21.40;;
57303;SDS011;43150;50.986;18.208;2022-12-18T08:40:35;47.70;;;19.80;;
57303;SDS011;43150;50.986;18.208;2022-12-18T08:43:01;42.70;;;18.00;;
57303;SDS011;43150;50.986;18.208;2022-12-18T08:45:48;48.00;;;21.90;;
57303;SDS011;43150;50.986;18.208;2022-12-18T08:48:13;54.50;;;21.00;;
57303;SDS011;43150;50.986;18.208;2022-12-18T08:50:40;51.90;;;20.00;;
57303;SDS011;43150;50.986;18.208;2022-12-18T08:53:05;60.70;;;28.20;;
57303;SDS011;43150;50.986;18.208;2022-12-18T08:55:34;64.40;;;27.80;;
57303;SDS011;43150;50.986;18.208;2022-12-18T08:58:07;81.30;;;29.80;;
57303;SDS011;43150;50.986;18.208;2022-12-18T09:00:32;39.90;;;21.50;;
57303;SDS011;43150;50.986;18.208;2022-12-18T09:03:01;48.90;;;24.50;;
57303;SDS011;43150;50.986;18.208;2022-12-18T09:05:27;45.10;;;18.90;;
57303;SDS011;43150;50.986;18.208;2022-12-18T09:07:53;44.20;;;21.40;;
57303;SDS011;43150;50.986;18.208;2022-12-18T09:10:18;41.20;;;19.50;;
57303;SDS011;43150;50.986;18.208;2022-12-18T09:12:44;38.90;;;16.20;;
57303;SDS011;43150;50.986;18.208;2022-12-18T09:15:10;29.50;;;11.80;;
57303;SDS011;43150;50.986;18.208;2022-12-18T09:17:35;29.70;;;13.00;;
57303;SDS011;43150;50.986;18.208;2022-12-18T09:20:01;37.50;;;15.70;;
57303;SDS011;43150;50.986;18.208;2022-12-18T09:22:26;40.30;;;17.00;;
57303;SDS011;43150;50.986;18.208;2022-12-18T09:24:52;62.20;;;25.70;;
57303;SDS011;43150;50.986;18.208;2022-12-18T09:27:20;53.30;;;23.00;;
57303;SDS011;43150;50.986;18.208;2022-12-18T09:29:45;47.30;;;19.00;;
57303;SDS011;43150;50.986;18.208;2022-12-18T09:32:14;51.30;;;23.30;;
57303;SDS011;43150;50.986;18.208;2022-12-18T09:34:40;69.10;;;31.10;;
57303;SDS011;43150;50.986;18.208;2022-12-18T09:37:05;50.60;;;21.90;;
57303;SDS011;43150;50.986;18.208;2022-12-18T09:39:31;42.60;;;18.60;;
57303;SDS011;43150;50.986;18.208;2022-12-18T09:41:57;55.40;;;24.90;;
57303;SDS011;43150;50.986;18.208;2022-12-18T09:44:30;79.10;;;34.40;;
57303;SDS011;43150;50.986;18.208;2022-12-18T09:47:03;37.10;;;18.00;;
57303;SDS011;43150;50.986;18.208;2022-12-18T09:49:37;42.10;;;19.30;;
57303;SDS011;43150;50.986;18.208;2022-12-18T09:52:08;44.70;;;20.30;;
57303;SDS011;43150;50.986;18.208;2022-12-18T09:54:40;53.30;;;25.00;;
57303;SDS011;43150;50.986;18.208;2022-12-18T09:57:06;45.40;;;20.50;;
57303;SDS011;43150;50.986;18.208;2022-12-18T09:59:35;40.50;;;18.30;;
57303;SDS011;43150;50.986;18.208;2022-12-18T10:02:35;44.00;;;21.50;;
57303;SDS011;43150;50.986;18.208;2022-12-18T10:05:01;52.70;;;26.40;;
57303;SDS011;43150;50.986;18.208;2022-12-18T10:12:44;42.10;;;20.30;;
57303;SDS011;43150;50.986;18.208;2022-12-18T10:20:49;45.60;;;20.80;;
57303;SDS011;43150;50.986;18.208;2022-12-18T10:26:02;40.30;;;19.60;;
57303;SDS011;43150;50.986;18.208;2022-12-18T10:28:29;43.30;;;20.90;;
57303;SDS011;43150;50.986;18.208;2022-12-18T10:30:55;44.00;;;22.30;;
57303;SDS011;43150;50.986;18.208;2022-12-18T10:33:27;42.00;;;22.50;;
57303;SDS011;43150;50.986;18.208;2022-12-18T10:35:53;45.50;;;23.70;;
57303;SDS011;43150;50.986;18.208;2022-12-18T10:40:53;41.30;;;20.50;;
57303;SDS011;43150;50.986;18.208;2022-12-18T10:43:21;37.20;;;16.10;;
57303;SDS011;43150;50.986;18.208;2022-12-18T10:48:31;41.60;;;19.80;;
57303;SDS011;43150;50.986;18.208;2022-12-18T10:50:57;41.40;;;18.10;;
57303;SDS011;43150;50.986;18.208;2022-12-18T10:53:27;41.60;;;20.40;;
57303;SDS011;43150;50.986;18.208;2022-12-18T10:55:54;42.10;;;20.70;;
57303;SDS011;43150;50.986;18.208;2022-12-18T10:58:38;41.50;;;22.60;;
57303;SDS011;43150;50.986;18.208;2022-12-18T11:03:31;51.60;;;24.60;;
57303;SDS011;43150;50.986;18.208;2022-12-18T11:06:08;43.80;;;20.60;;
57303;SDS011;43150;50.986;18.208;2022-12-18T11:08:33;37.50;;;19.20;;
57303;SDS011;43150;50.986;18.208;2022-12-18T11:10:59;35.70;;;18.50;;
57303;SDS011;43150;50.986;18.208;2022-12-18T11:13:26;52.20;;;28.20;;
57303;SDS011;43150;50.986;18.208;2022-12-18T11:15:52;38.10;;;18.00;;
57303;SDS011;43150;50.986;18.208;2022-12-18T11:20:50;44.20;;;22.10;;
57303;SDS011;43150;50.986;18.208;2022-12-18T11:23:16;48.20;;;23.20;;
57303;SDS011;43150;50.986;18.208;2022-12-18T11:25:50;42.60;;;20.90;;
57303;SDS011;43150;50.986;18.208;2022-12-18T11:28:39;46.00;;;23.00;;
57303;SDS011;43150;50.986;18.208;2022-12-18T11:33:41;49.70;;;22.70;;
57303;SDS011;43150;50.986;18.208;2022-12-18T11:36:07;37.20;;;18.00;;
57303;SDS011;43150;50.986;18.208;2022-12-18T11:38:38;42.50;;;19.40;;
57303;SDS011;43150;50.986;18.208;2022-12-18T11:41:07;43.50;;;21.90;;
57303;SDS011;43150;50.986;18.208;2022-12-18T11:43:41;43.10;;;22.90;;
57303;SDS011;43150;50.986;18.208;2022-12-18T11:46:16;54.60;;;27.50;;
57303;SDS011;43150;50.986;18.208;2022-12-18T11:48:58;106.10;;;37.30;;
57303;SDS011;43150;50.986;18.208;2022-12-18T11:51:37;65.80;;;29.00;;
57303;SDS011;43150;50.986;18.208;2022-12-18T11:54:23;38.40;;;19.60;;
57303;SDS011;43150;50.986;18.208;2022-12-18T12:02:25;49.20;;;24.40;;
57303;SDS011;43150;50.986;18.208;2022-12-18T12:07:15;63.50;;;26.60;;
57303;SDS011;43150;50.986;18.208;2022-12-18T12:12:39;91.20;;;32.50;;
57303;SDS011;43150;50.986;18.208;2022-12-18T12:18:07;55.60;;;26.20;;
57303;SDS011;43150;50.986;18.208;2022-12-18T12:23:20;48.80;;;22.50;;
57303;SDS011;43150;50.986;18.208;2022-12-18T12:33:31;89.90;;;32.00;;
57303;SDS011;43150;50.986;18.208;2022-12-18T12:36:23;62.10;;;27.60;;
57303;SDS011;43150;50.986;18.208;2022-12-18T12:38:47;60.60;;;25.60;;
57303;SDS011;43150;50.986;18.208;2022-12-18T12:41:17;64.00;;;26.10;;
57303;SDS011;43150;50.986;18.208;2022-12-18T12:44:04;84.40;;;32.40;;
57303;SDS011;43150;50.986;18.208;2022-12-18T12:46:32;69.20;;;27.00;;
57303;SDS011;43150;50.986;18.208;2022-12-18T12:49:04;76.30;;;28.30;;
57303;SDS011;43150;50.986;18.208;2022-12-18T12:51:35;73.70;;;28.40;;
57303;SDS011;43150;50.986;18.208;2022-12-18T12:54:02;65.90;;;27.90;;
57303;SDS011;43150;50.986;18.208;2022-12-18T12:56:43;65.30;;;29.00;;
57303;SDS011;43150;50.986;18.208;2022-12-18T12:59:13;64.40;;;28.50;;
57303;SDS011;43150;50.986;18.208;2022-12-18T13:02:02;64.60;;;25.50;;
57303;SDS011;43150;50.986;18.208;2022-12-18T13:04:35;68.40;;;28.20;;
57303;SDS011;43150;50.986;18.208;2022-12-18T13:09:32;62.80;;;26.40;;
57303;SDS011;43150;50.986;18.208;2022-12-18T13:12:02;71.80;;;29.10;;
57303;SDS011;43150;50.986;18.208;2022-12-18T13:14:46;64.60;;;25.90;;
57303;SDS011;43150;50.986;18.208;2022-12-18T13:20:06;68.90;;;27.50;;
57303;SDS011;43150;50.986;18.208;2022-12-18T13:22:37;80.30;;;32.30;;
57303;SDS011;43150;50.986;18.208;2022-12-18T13:25:04;87.70;;;33.20;;
57303;SDS011;43150;50.986;18.208;2022-12-18T13:38:21;49.40;;;21.40;;
57303;SDS011;43150;50.986;18.208;2022-12-18T13:45:44;50.30;;;21.30;;
57303;SDS011;43150;50.986;18.208;2022-12-18T13:48:18;47.00;;;19.00;;
57303;SDS011;43150;50.986;18.208;2022-12-18T13:50:48;46.10;;;20.10;;
57303;SDS011;43150;50.986;18.208;2022-12-18T13:53:17;56.70;;;21.40;;
57303;SDS011;43150;50.986;18.208;2022-12-18T13:55:45;59.60;;;20.70;;
57303;SDS011;43150;50.986;18.208;2022-12-18T13:58:14;45.40;;;20.00;;
57303;SDS011;43150;50.986;18.208;2022-12-18T14:00:42;41.30;;;18.60;;
57303;SDS011;43150;50.986;18.208;2022-12-18T14:03:22;47.90;;;20.10;;
57303;SDS011;43150;50.986;18.208;2022-12-18T14:05:55;45.90;;;18.20;;
57303;SDS011;43150;50.986;18.208;2022-12-18T14:08:21;49.10;;;19.10;;
57303;SDS011;43150;50.986;18.208;2022-12-18T14:10:48;45.90;;;17.40;;
57303;SDS011;43150;50.986;18.208;2022-12-18T14:13:37;38.70;;;15.90;;
57303;SDS011;43150;50.986;18.208;2022-12-18T14:16:03;40.30;;;18.90;;
57303;SDS011;43150;50.986;18.208;2022-12-18T14:20:55;55.60;;;20.80;;
57303;SDS011;43150;50.986;18.208;2022-12-18T14:25:57;43.90;;;18.10;;
57303;SDS011;43150;50.986;18.208;2022-12-18T14:28:23;45.40;;;18.40;;
57303;SDS011;43150;50.986;18.208;2022-12-18T14:30:48;41.50;;;18.60;;
57303;SDS011;43150;50.986;18.208;2022-12-18T14:33:15;55.20;;;24.00;;
57303;SDS011;43150;50.986;18.208;2022-12-18T14:35:55;54.90;;;21.70;;
57303;SDS011;43150;50.986;18.208;2022-12-18T14:40:47;61.50;;;23.70;;
57303;SDS011;43150;50.986;18.208;2022-12-18T14:43:17;92.20;;;34.10;;
57303;SDS011;43150;50.986;18.208;2022-12-18T14:45:43;184.30;;;54.50;;
57303;SDS011;43150;50.986;18.208;2022-12-18T14:48:14;139.40;;;43.40;;
57303;SDS011;43150;50.986;18.208;2022-12-18T14:50:40;109.10;;;37.00;;
57303;SDS011;43150;50.986;18.208;2022-12-18T14:53:06;108.00;;;37.60;;
57303;SDS011;43150;50.986;18.208;2022-12-18T14:55:45;67.70;;;27.30;;
57303;SDS011;43150;50.986;18.208;2022-12-18T14:58:13;69.10;;;27.80;;
57303;SDS011;43150;50.986;18.208;2022-12-18T15:00:40;68.70;;;26.50;;
57303;SDS011;43150;50.986;18.208;2022-12-18T15:03:06;57.50;;;23.80;;
57303;SDS011;43150;50.986;18.208;2022-12-18T15:05:33;53.50;;;20.50;;
57303;SDS011;43150;50.986;18.208;2022-12-18T15:08:00;40.40;;;16.90;;
57303;SDS011;43150;50.986;18.208;2022-12-18T15:10:29;41.60;;;16.90;;
57303;SDS011;43150;50.986;18.208;2022-12-18T15:20:26;38.80;;;15.30;;
57303;SDS011;43150;50.986;18.208;2022-12-18T15:22:52;47.00;;;16.20;;
57303;SDS011;43150;50.986;18.208;2022-12-18T15:25:39;45.50;;;17.50;;
57303;SDS011;43150;50.986;18.208;2022-12-18T15:28:04;41.20;;;16.70;;
57303;SDS011;43150;50.986;18.208;2022-12-18T15:30:57;60.70;;;21.20;;
57303;SDS011;43150;50.986;18.208;2022-12-18T15:33:24;47.50;;;18.20;;
57303;SDS011;43150;50.986;18.208;2022-12-18T15:35:57;52.90;;;19.60;;
57303;SDS011;43150;50.986;18.208;2022-12-18T15:38:23;55.50;;;20.00;;
57303;SDS011;43150;50.986;18.208;2022-12-18T15:40:49;57.10;;;19.00;;
57303;SDS011;43150;50.986;18.208;2022-12-18T15:43:15;52.50;;;17.90;;
57303;SDS011;43150;50.986;18.208;2022-12-18T15:46:02;54.60;;;17.80;;
57303;SDS011;43150;50.986;18.208;2022-12-18T15:48:35;32.10;;;15.30;;
57303;SDS011;43150;50.986;18.208;2022-12-18T15:51:02;22.30;;;14.90;;
57303;SDS011;43150;50.986;18.208;2022-12-18T15:53:30;47.40;;;18.90;;
57303;SDS011;43150;50.986;18.208;2022-12-18T15:55:56;24.70;;;10.90;;
57303;SDS011;43150;50.986;18.208;2022-12-18T15:58:40;16.90;;;7.60;;
57303;SDS011;43150;50.986;18.208;2022-12-18T16:01:07;61.40;;;19.70;;